Time;durP1;ratioP1;P1;durP2;ratioP2;P2;SDS_P1;SDS_P2;PMS_P1;PMS_P2;Temp;Humidity;BMP_temperature;BMP_pressure;BME280_temperature;BME280_humidity;BME280_pressure;Samples;Min_cycle;Max_cycle;Signal;HPM_P1;HPM_P2
2021/09/09 00:02:07;;;;;;;13.40;9.45;;;;;;;10.81;69.66;100487.64;2162228;80;21568;-84
2021/09/09 00:05:11;;;;;;;13.35;9.85;;;;;;;10.76;69.35;100484.16;2158989;80;21007;-82
2021/09/09 00:08:13;;;;;;;17.10;11.10;;;;;;;10.72;69.30;100480.14;2168817;80;20994;-81
2021/09/09 00:11:18;;;;;;;13.58;9.93;;;;;;;10.67;69.91;100483.28;2153615;80;21023;-80
2021/09/09 00:14:19;;;;;;;18.82;12.30;;;;;;;10.61;69.76;100490.52;2158879;80;20993;-83
2021/09/09 00:17:23;;;;;;;14.93;11.10;;;;;;;10.58;69.98;100484.71;2167611;80;21017;-82
2021/09/09 00:20:24;;;;;;;17.60;11.53;;;;;;;10.53;70.50;100482.52;2157798;80;21465;-80
2021/09/09 00:23:27;;;;;;;15.32;11.38;;;;;;;10.49;70.70;100478.53;2169315;80;21015;-82
2021/09/09 00:26:29;;;;;;;14.93;10.93;;;;;;;10.43;70.73;100479.99;2168313;80;21021;-81
2021/09/09 00:29:31;;;;;;;20.77;12.58;;;;;;;10.45;71.35;100477.19;2164889;80;21001;-82
2021/09/09 00:32:32;;;;;;;17.17;12.43;;;;;;;10.45;71.30;100481.17;2153754;80;21036;-79
2021/09/09 00:35:36;;;;;;;15.40;11.65;;;;;;;10.50;71.70;100480.18;2158554;80;21022;-81
2021/09/09 00:38:38;;;;;;;12.90;10.48;;;;;;;10.53;71.46;100471.91;2157465;80;21049;-81
2021/09/09 00:41:39;;;;;;;16.70;11.85;;;;;;;10.51;71.06;100475.23;2169010;80;21089;-84
2021/09/09 00:44:41;;;;;;;16.73;11.03;;;;;;;10.50;71.37;100473.08;2171980;80;21053;-79
2021/09/09 00:47:42;;;;;;;15.20;10.40;;;;;;;10.50;71.51;100474.87;2176487;80;20996;-82
2021/09/09 00:50:44;;;;;;;16.67;12.20;;;;;;;10.46;71.21;100471.72;2166651;80;20996;-78
2021/09/09 00:53:46;;;;;;;13.98;9.15;;;;;;;10.47;71.42;100472.54;2178455;80;21060;-83
2021/09/09 00:56:49;;;;;;;14.63;10.88;;;;;;;10.43;70.81;100464.58;2175191;80;21021;-83
2021/09/09 00:59:53;;;;;;;16.82;11.57;;;;;;;10.37;70.94;100470.52;2179640;80;21516;-81
2021/09/09 01:02:55;;;;;;;19.48;12.00;;;;;;;10.31;71.50;100467.99;2175278;80;20969;-80
2021/09/09 01:05:56;;;;;;;14.58;11.63;;;;;;;10.31;71.94;100464.02;2173833;80;21014;-81
2021/09/09 01:08:57;;;;;;;19.57;11.90;;;;;;;10.29;71.73;100464.16;2171890;80;21553;-83
2021/09/09 01:11:59;;;;;;;14.95;10.88;;;;;;;10.30;71.72;100464.52;2165443;80;20971;-81
2021/09/09 01:15:00;;;;;;;17.37;10.88;;;;;;;10.27;71.54;100463.47;2173011;80;20926;-81
2021/09/09 01:18:12;;;;;;;16.67;12.60;;;;;;;10.23;71.81;100465.25;2182058;80;21042;-83
2021/09/09 01:21:14;;;;;;;18.52;13.03;;;;;;;10.25;72.24;100463.28;2173276;80;21548;-84
2021/09/09 01:24:20;;;;;;;20.82;13.90;;;;;;;10.27;72.37;100465.30;2158799;80;20996;-82
2021/09/09 01:27:22;;;;;;;21.07;13.62;;;;;;;10.32;72.64;100465.17;2170552;80;21025;-81
2021/09/09 01:30:24;;;;;;;20.57;12.05;;;;;;;10.35;72.67;100461.88;2168368;80;20984;-80
2021/09/09 01:33:25;;;;;;;17.80;12.98;;;;;;;10.33;72.62;100459.36;2168778;80;21026;-83
2021/09/09 01:36:27;;;;;;;21.85;13.90;;;;;;;10.38;72.80;100456.25;2173795;80;21005;-83
2021/09/09 01:39:29;;;;;;;20.77;11.85;;;;;;;10.43;72.96;100464.58;2166880;80;20989;-79
2021/09/09 01:42:30;;;;;;;22.30;13.72;;;;;;;10.46;72.82;100461.60;2188412;79;21034;-83
2021/09/09 01:45:32;;;;;;;21.40;14.23;;;;;;;10.51;73.01;100464.63;2186858;80;21083;-80
2021/09/09 01:48:33;;;;;;;19.65;13.65;;;;;;;10.55;72.89;100467.28;2173269;80;21404;-84
2021/09/09 01:51:35;;;;;;;22.70;14.83;;;;;;;10.54;72.57;100462.47;2180434;80;21040;-81
2021/09/09 01:54:37;;;;;;;18.50;13.53;;;;;;;10.59;72.91;100463.34;2174388;80;21040;-81
2021/09/09 01:57:38;;;;;;;15.88;10.60;;;;;;;10.56;72.58;100461.01;2181874;80;21041;-80
2021/09/09 02:00:40;;;;;;;19.25;12.10;;;;;;;10.52;72.47;100459.14;2183410;80;20966;-81
2021/09/09 02:03:41;;;;;;;15.48;11.08;;;;;;;10.45;72.31;100462.10;2176906;80;21429;-81
2021/09/09 02:06:42;;;;;;;14.98;10.75;;;;;;;10.44;72.16;100460.42;2186317;80;21004;-82
2021/09/09 02:09:45;;;;;;;16.20;12.13;;;;;;;10.39;71.82;100466.72;2179103;80;20977;-81
2021/09/09 02:12:49;;;;;;;14.03;9.58;;;;;;;10.33;72.15;100467.31;2177028;80;20990;-82
2021/09/09 02:15:50;;;;;;;15.68;10.35;;;;;;;10.25;71.58;100457.48;2182991;80;21012;-80
2021/09/09 02:18:52;;;;;;;17.42;12.10;;;;;;;10.18;71.52;100460.41;2178318;80;20997;-83
2021/09/09 02:21:53;;;;;;;17.85;13.05;;;;;;;10.12;71.78;100461.03;2190659;80;21510;-82
2021/09/09 02:24:54;;;;;;;21.52;14.63;;;;;;;10.01;72.28;100455.98;2176517;80;20961;-82
2021/09/09 02:27:56;;;;;;;23.10;14.05;;;;;;;9.96;72.71;100458.27;2188967;80;21002;-81
2021/09/09 02:30:57;;;;;;;21.27;14.18;;;;;;;9.84;72.61;100457.18;2186124;80;21029;-82
2021/09/09 02:33:59;;;;;;;18.80;13.20;;;;;;;9.76;73.00;100454.96;2177202;80;21065;-82
2021/09/09 02:37:01;;;;;;;17.45;10.98;;;;;;;9.62;73.12;100455.00;2175621;80;21036;-82
2021/09/09 02:40:03;;;;;;;15.28;11.05;;;;;;;9.55;72.81;100452.14;2179001;80;20988;-81
2021/09/09 02:43:04;;;;;;;20.27;14.85;;;;;;;9.51;72.37;100457.88;2176299;80;21008;-79
2021/09/09 02:46:06;;;;;;;17.37;11.33;;;;;;;9.45;72.77;100454.52;2170652;80;21570;-81
2021/09/09 02:49:07;;;;;;;21.12;13.35;;;;;;;9.43;72.54;100458.63;2174393;80;20969;-82
2021/09/09 02:52:10;;;;;;;23.07;12.70;;;;;;;9.44;72.92;100452.38;2177657;80;21068;-81
2021/09/09 02:55:12;;;;;;;23.22;13.25;;;;;;;9.42;72.69;100458.30;2180510;80;20950;-80
2021/09/09 02:58:13;;;;;;;18.32;12.47;;;;;;;9.41;72.68;100452.67;2180328;80;20982;-81
2021/09/09 03:01:15;;;;;;;15.80;10.80;;;;;;;9.40;72.80;100455.82;2182198;80;21502;-82
2021/09/09 03:04:16;;;;;;;17.73;11.65;;;;;;;9.35;72.20;100450.14;2177922;80;20964;-84
2021/09/09 03:07:18;;;;;;;16.57;11.73;;;;;;;9.31;72.08;100454.05;2182917;80;21013;-83
2021/09/09 03:10:19;;;;;;;22.40;14.10;;;;;;;9.26;72.17;100454.98;2165971;80;21544;-81
2021/09/09 03:13:20;;;;;;;27.10;14.55;;;;;;;9.23;72.33;100456.62;2173806;80;21026;-81
2021/09/09 03:16:22;;;;;;;22.25;15.78;;;;;;;9.22;72.92;100450.16;2177692;80;21016;-81
2021/09/09 03:19:23;;;;;;;18.87;13.65;;;;;;;9.20;73.14;100448.97;2180624;80;21033;-82
2021/09/09 03:22:25;;;;;;;24.60;15.53;;;;;;;9.14;72.64;100453.55;2151040;80;21458;-79
2021/09/09 03:25:26;;;;;;;15.80;11.45;;;;;;;9.10;72.80;100449.05;2167028;80;21539;-82
2021/09/09 03:28:28;;;;;;;21.35;15.08;;;;;;;9.06;72.44;100450.81;2174596;80;21014;-81
2021/09/09 03:31:29;;;;;;;18.20;13.28;;;;;;;8.96;72.68;100439.80;2172454;80;21055;-80
2021/09/09 03:34:31;;;;;;;20.10;14.65;;;;;;;8.93;72.50;100450.69;2179757;80;21005;-79
2021/09/09 03:37:32;;;;;;;34.83;17.32;;;;;;;8.86;72.63;100446.13;2171179;80;21035;-83
2021/09/09 03:40:34;;;;;;;24.47;15.63;;;;;;;8.84;73.21;100445.42;2182539;80;21033;-80
2021/09/09 03:43:36;;;;;;;24.60;15.10;;;;;;;8.79;73.20;100443.73;2179718;80;21770;-80
2021/09/09 03:46:37;;;;;;;22.10;15.70;;;;;;;8.80;73.33;100441.42;2189886;80;20962;-82
2021/09/09 03:49:39;;;;;;;16.62;11.55;;;;;;;8.79;73.60;100442.41;2175449;80;21041;-80
2021/09/09 03:52:40;;;;;;;19.25;12.25;;;;;;;8.72;73.23;100435.53;2174258;80;20979;-81
2021/09/09 03:55:42;;;;;;;18.37;12.28;;;;;;;8.65;72.92;100435.30;2187825;80;20950;-80
2021/09/09 03:58:43;;;;;;;21.02;15.15;;;;;;;8.61;72.90;100443.66;2182986;80;20950;-81
2021/09/09 04:01:45;;;;;;;16.15;11.75;;;;;;;8.52;73.15;100432.98;2187879;80;21238;-82
2021/09/09 04:04:46;;;;;;;19.57;12.55;;;;;;;8.48;72.79;100440.87;2176466;80;21429;-81
2021/09/09 04:07:48;;;;;;;24.98;12.55;;;;;;;8.44;72.79;100438.16;2181276;80;21508;-82
2021/09/09 04:10:50;;;;;;;22.42;13.98;;;;;;;8.38;72.76;100433.42;2173333;80;20948;-82
2021/09/09 04:13:51;;;;;;;22.48;14.18;;;;;;;8.34;73.13;100431.23;2178833;80;21033;-83
2021/09/09 04:16:53;;;;;;;22.60;13.30;;;;;;;8.29;73.78;100430.33;2189052;80;21509;-82
2021/09/09 04:19:55;;;;;;;18.30;12.25;;;;;;;8.27;73.38;100434.42;2179713;80;21453;-83
2021/09/09 04:22:57;;;;;;;22.22;12.40;;;;;;;8.30;73.19;100433.30;2180691;80;21049;-79
2021/09/09 04:25:58;;;;;;;22.40;15.80;;;;;;;8.24;73.00;100437.36;2177871;80;21487;-79
2021/09/09 04:29:00;;;;;;;15.50;11.80;;;;;;;8.21;73.58;100432.36;2174695;80;20970;-79
2021/09/09 04:32:02;;;;;;;25.62;15.45;;;;;;;8.21;73.24;100431.04;2184045;80;21014;-80
2021/09/09 04:35:04;;;;;;;18.45;11.70;;;;;;;8.22;73.88;100435.83;2176611;80;21075;-81
2021/09/09 04:38:06;;;;;;;16.57;12.33;;;;;;;8.22;73.36;100437.16;2181328;80;21049;-82
2021/09/09 04:41:07;;;;;;;15.65;11.63;;;;;;;8.24;73.62;100443.14;2174538;80;20991;-78
2021/09/09 04:44:09;;;;;;;15.03;11.70;;;;;;;8.25;73.37;100439.52;2150511;80;21044;-80
2021/09/09 04:47:10;;;;;;;19.90;11.70;;;;;;;8.24;73.25;100436.04;2162130;80;20993;-81
2021/09/09 04:50:12;;;;;;;18.57;12.30;;;;;;;8.27;73.43;100437.56;2164690;80;21007;-78
2021/09/09 04:53:13;;;;;;;24.27;13.43;;;;;;;8.32;73.33;100435.33;2166616;80;21021;-79
2021/09/09 04:56:15;;;;;;;20.82;11.78;;;;;;;8.36;73.61;100438.02;2154311;80;20986;-82
2021/09/09 04:59:17;;;;;;;18.12;10.78;;;;;;;8.39;73.59;100442.21;2158669;80;21535;-81
2021/09/09 05:02:18;;;;;;;21.48;13.28;;;;;;;8.45;73.71;100432.41;2161638;80;21017;-80
2021/09/09 05:05:20;;;;;;;22.80;15.25;;;;;;;8.50;74.05;100433.63;2149817;80;20996;-82
2021/09/09 05:08:21;;;;;;;20.37;13.65;;;;;;;8.56;74.17;100432.68;2156647;80;21477;-80
2021/09/09 05:11:23;;;;;;;25.97;14.80;;;;;;;8.69;74.54;100433.19;2158322;80;20974;-80
2021/09/09 05:14:24;;;;;;;26.05;14.10;;;;;;;9.04;74.61;100427.16;2158298;80;20963;-78
2021/09/09 05:17:25;;;;;;;18.50;12.70;;;;;;;9.56;74.64;100417.20;2160458;80;20993;-80
2021/09/09 05:20:27;;;;;;;19.75;13.95;;;;;;;10.19;74.52;100413.03;2162454;80;21013;-78
2021/09/09 05:23:28;;;;;;;23.15;13.88;;;;;;;10.87;74.45;100398.92;2156142;80;21057;-81
2021/09/09 05:26:30;;;;;;;19.02;13.98;;;;;;;11.56;74.06;100394.69;2167104;80;21028;-78
2021/09/09 05:29:32;;;;;;;17.98;13.88;;;;;;;12.32;73.66;100398.75;2162121;80;21050;-80
2021/09/09 05:32:33;;;;;;;17.48;12.95;;;;;;;13.03;72.82;100395.58;2158004;80;21024;-81
2021/09/09 05:35:35;;;;;;;18.92;14.03;;;;;;;13.68;72.22;100391.16;2164680;80;21010;-79
2021/09/09 05:38:36;;;;;;;19.82;13.20;;;;;;;14.34;71.77;100393.97;2159864;80;21080;-81
2021/09/09 05:41:38;;;;;;;25.45;13.22;;;;;;;15.04;71.12;100395.78;2164287;80;21014;-82
2021/09/09 05:44:39;;;;;;;19.10;12.78;;;;;;;15.54;70.06;100400.70;2179065;80;21561;-79
2021/09/09 05:47:41;;;;;;;17.67;13.05;;;;;;;16.12;69.62;100393.34;2176080;80;21004;-81
2021/09/09 05:50:43;;;;;;;26.07;13.72;;;;;;;16.64;68.40;100391.64;2174243;80;21541;-81
2021/09/09 05:53:44;;;;;;;24.65;14.15;;;;;;;17.09;67.95;100384.84;2172431;80;20967;-82
2021/09/09 05:56:46;;;;;;;24.92;13.53;;;;;;;17.67;66.67;100381.58;2162628;80;20999;-83
2021/09/09 05:59:47;;;;;;;24.02;12.82;;;;;;;18.00;66.34;100374.88;2180013;80;20979;-82
2021/09/09 06:02:49;;;;;;;20.92;13.40;;;;;;;18.28;65.16;100373.27;2177772;80;21004;-81
2021/09/09 06:05:53;;;;;;;21.23;12.55;;;;;;;18.71;64.72;100378.06;2178072;80;21622;-82
2021/09/09 06:08:55;;;;;;;23.95;12.47;;;;;;;19.13;63.82;100377.14;2175692;80;21020;-81
2021/09/09 06:11:57;;;;;;;23.25;11.60;;;;;;;19.44;63.36;100376.30;2167891;80;20978;-83
2021/09/09 06:14:58;;;;;;;16.50;12.10;;;;;;;19.79;62.85;100379.87;2170635;80;21597;-83
2021/09/09 06:18:00;;;;;;;21.15;11.65;;;;;;;20.20;62.33;100376.28;2175196;80;21008;-82
2021/09/09 06:21:02;;;;;;;17.30;11.43;;;;;;;20.68;61.34;100374.20;2179682;80;20983;-81
2021/09/09 06:24:06;;;;;;;21.82;11.40;;;;;;;20.62;59.40;100367.84;2181990;80;21268;-81
2021/09/09 06:27:07;;;;;;;15.13;10.48;;;;;;;20.66;58.67;100370.36;2173277;80;21005;-78
2021/09/09 06:30:09;;;;;;;17.82;11.20;;;;;;;20.66;57.72;100363.63;2178733;80;21065;-78
2021/09/09 06:33:11;;;;;;;19.37;9.85;;;;;;;20.40;56.46;100355.84;2175561;80;20964;-77
2021/09/09 06:36:12;;;;;;;12.78;9.33;;;;;;;20.05;54.99;100353.76;2174227;80;21024;-79
2021/09/09 06:39:14;;;;;;;13.83;9.43;;;;;;;19.81;55.36;100347.35;2170416;80;20986;-79
2021/09/09 06:42:15;;;;;;;15.15;9.10;;;;;;;19.65;54.36;100341.50;2176563;80;21617;-80
2021/09/09 06:45:17;;;;;;;13.48;8.95;;;;;;;19.46;54.58;100341.13;2178246;80;20978;-78
2021/09/09 06:48:19;;;;;;;13.65;8.85;;;;;;;19.37;54.62;100338.37;2172146;80;21051;-78
2021/09/09 06:51:21;;;;;;;13.95;8.60;;;;;;;19.37;54.30;100349.98;2174214;80;21012;-79
2021/09/09 06:54:23;;;;;;;13.00;9.10;;;;;;;19.32;53.62;100346.30;2175766;80;21012;-78
2021/09/09 06:57:24;;;;;;;13.35;8.53;;;;;;;19.37;53.89;100342.41;2184480;80;20968;-79
2021/09/09 07:00:26;;;;;;;13.85;8.80;;;;;;;19.58;54.40;100351.98;2178685;80;21014;-78
2021/09/09 07:03:30;;;;;;;15.58;8.88;;;;;;;19.90;53.27;100354.09;2181229;80;21046;-78
2021/09/09 07:06:31;;;;;;;13.10;8.45;;;;;;;20.02;53.29;100352.33;2176939;80;21094;-78
2021/09/09 07:09:32;;;;;;;16.05;8.13;;;;;;;20.15;51.70;100351.34;2184723;80;21084;-80
2021/09/09 07:12:34;;;;;;;13.25;7.40;;;;;;;20.28;51.99;100351.73;2178278;80;21108;-79
2021/09/09 07:15:35;;;;;;;9.10;7.03;;;;;;;20.46;51.95;100349.02;2180829;80;21441;-79
2021/09/09 07:18:37;;;;;;;11.60;7.17;;;;;;;20.51;51.03;100349.17;2179789;80;21553;-79
2021/09/09 07:21:39;;;;;;;12.78;7.95;;;;;;;20.72;50.76;100329.04;2175821;80;20968;-79
2021/09/09 07:24:41;;;;;;;14.93;7.85;;;;;;;20.90;50.71;100349.73;2175676;80;21008;-79
2021/09/09 07:27:42;;;;;;;13.00;7.33;;;;;;;21.10;49.77;100345.92;2183144;80;21797;-78
2021/09/09 07:30:44;;;;;;;9.23;7.20;;;;;;;21.37;50.14;100345.84;2174551;80;20971;-78
2021/09/09 07:33:45;;;;;;;11.75;6.62;;;;;;;21.50;47.88;100347.48;2187275;80;20994;-79
2021/09/09 07:36:47;;;;;;;14.65;7.30;;;;;;;21.42;47.72;100350.53;2180331;80;21638;-80
2021/09/09 07:39:48;;;;;;;11.63;7.50;;;;;;;21.53;48.32;100348.91;2172610;80;20960;-79
2021/09/09 07:42:50;;;;;;;15.28;7.72;;;;;;;21.79;48.58;100345.73;2170313;80;21021;-78
2021/09/09 07:45:51;;;;;;;12.15;7.03;;;;;;;22.03;47.21;100343.03;2162843;80;20963;-79
2021/09/09 07:48:54;;;;;;;9.20;6.25;;;;;;;22.34;48.25;100339.95;2167101;80;20979;-78
2021/09/09 07:51:55;;;;;;;10.78;6.97;;;;;;;22.34;45.14;100335.08;2167789;80;20935;-79
2021/09/09 07:54:56;;;;;;;12.82;6.65;;;;;;;22.38;45.99;100339.78;2165622;80;20974;-79
2021/09/09 07:57:58;;;;;;;14.70;6.17;;;;;;;22.53;46.64;100337.09;2156938;80;21295;-79
2021/09/09 08:00:59;;;;;;;10.78;6.60;;;;;;;22.70;45.96;100337.95;2168377;80;21500;-79
2021/09/09 08:04:00;;;;;;;15.15;8.28;;;;;;;22.84;44.84;100337.14;2154477;80;20951;-78
2021/09/09 08:07:02;;;;;;;9.35;6.60;;;;;;;22.87;45.40;100338.54;2161898;80;21001;-77
2021/09/09 08:10:04;;;;;;;10.15;6.83;;;;;;;22.86;45.23;100332.82;2161451;80;21016;-78
2021/09/09 08:13:05;;;;;;;14.90;6.30;;;;;;;23.18;45.39;100331.27;2160653;80;20939;-77
2021/09/09 08:16:07;;;;;;;13.88;6.62;;;;;;;23.46;44.00;100327.67;2165168;80;20978;-77
2021/09/09 08:19:08;;;;;;;9.75;6.00;;;;;;;23.73;45.01;100345.16;2161635;80;20997;-78
2021/09/09 08:22:10;;;;;;;7.67;5.80;;;;;;;23.96;44.06;100336.81;2168590;80;21398;-77
2021/09/09 08:25:12;;;;;;;9.73;6.17;;;;;;;23.98;42.50;100342.81;2166424;80;21029;-78
2021/09/09 08:28:13;;;;;;;8.18;6.33;;;;;;;23.80;41.17;100343.92;2162419;80;21024;-77
2021/09/09 08:31:16;;;;;;;11.88;5.80;;;;;;;23.65;42.38;100343.14;2159883;80;21060;-78
2021/09/09 08:34:17;;;;;;;8.23;5.67;;;;;;;23.83;42.74;100342.61;2156396;80;21037;-78
2021/09/09 08:37:18;;;;;;;10.60;5.20;;;;;;;24.05;42.40;100343.46;2160256;80;21497;-80
2021/09/09 08:40:22;;;;;;;9.48;6.10;;;;;;;24.09;41.61;100341.87;2161466;80;20987;-77
2021/09/09 08:43:23;;;;;;;11.18;5.65;;;;;;;24.18;41.81;100347.69;2162361;80;21029;-77
2021/09/09 08:46:25;;;;;;;8.65;5.87;;;;;;;24.09;40.55;100344.59;2158317;80;21038;-78
2021/09/09 08:49:28;;;;;;;8.93;5.87;;;;;;;24.15;40.39;100338.16;2149099;80;20984;-77
2021/09/09 08:52:30;;;;;;;7.65;5.67;;;;;;;24.23;40.98;100340.16;2153787;80;20997;-78
2021/09/09 08:55:31;;;;;;;7.40;5.37;;;;;;;24.37;39.92;100336.81;2155427;80;20982;-78
2021/09/09 08:58:34;;;;;;;8.53;5.72;;;;;;;24.48;39.66;100337.79;2155670;80;20931;-78
2021/09/09 09:01:36;;;;;;;7.97;5.50;;;;;;;24.57;40.87;100336.27;2151070;80;21122;-80
2021/09/09 09:04:38;;;;;;;10.68;5.60;;;;;;;24.64;39.97;100333.88;2155111;80;21539;-80
2021/09/09 09:07:40;;;;;;;10.38;5.20;;;;;;;24.65;38.87;100330.11;2159245;80;21448;-79
2021/09/09 09:10:41;;;;;;;11.28;5.90;;;;;;;24.64;39.88;100327.95;2157953;80;21032;-79
2021/09/09 09:13:42;;;;;;;9.70;5.45;;;;;;;24.75;39.39;100324.27;2165699;80;21005;-78
2021/09/09 09:16:48;;;;;;;9.03;5.20;;;;;;;24.87;39.84;100334.15;2133027;80;20988;-79
2021/09/09 09:19:50;;;;;;;7.58;5.25;;;;;;;25.00;39.18;100331.00;2147577;80;22421;-78
2021/09/09 09:22:53;;;;;;;10.75;5.40;;;;;;;24.92;37.57;100317.89;2163061;80;21535;-79
2021/09/09 09:25:59;;;;;;;9.35;5.92;;;;;;;24.73;37.89;100327.77;2157849;80;21036;-77
2021/09/09 09:29:01;;;;;;;8.35;5.40;;;;;;;24.72;38.28;100319.87;2156686;80;21059;-78
2021/09/09 09:32:15;;;;;;;10.13;6.45;;;;;;;24.81;39.50;100321.88;2160983;80;21486;-79
2021/09/09 09:35:20;;;;;;;11.70;5.45;;;;;;;25.02;38.98;100309.86;2161993;80;21012;-80
2021/09/09 09:38:22;;;;;;;16.85;6.30;;;;;;;25.22;39.05;100302.45;2161141;80;20974;-79
2021/09/09 09:41:25;;;;;;;14.50;5.62;;;;;;;25.26;38.56;100297.61;2152225;80;21087;-79
2021/09/09 09:44:37;;;;;;;10.05;5.62;;;;;;;25.34;37.78;100303.11;2160304;80;21033;-78
2021/09/09 09:47:39;;;;;;;10.28;4.95;;;;;;;25.47;38.33;100304.00;2159767;80;21475;-79
2021/09/09 09:50:40;;;;;;;9.50;5.50;;;;;;;25.67;38.35;100298.42;2167677;80;21013;-78
2021/09/09 09:53:42;;;;;;;7.97;5.10;;;;;;;25.85;37.46;100295.31;2162670;81;21010;-78
2021/09/09 09:56:45;;;;;;;9.25;5.10;;;;;;;25.91;37.43;100296.97;2158799;81;21027;-80
2021/09/09 09:59:47;;;;;;;7.37;4.70;;;;;;;25.79;36.32;100294.14;2159630;81;21061;-79
2021/09/09 10:02:49;;;;;;;9.73;4.55;;;;;;;25.74;35.79;100291.42;2160791;80;20962;-80
2021/09/09 10:05:52;;;;;;;9.55;4.37;;;;;;;25.71;34.04;100289.50;2156516;80;21048;-79
2021/09/09 10:08:54;;;;;;;7.58;4.65;;;;;;;25.79;35.83;100284.63;2165427;80;20999;-79
2021/09/09 10:11:56;;;;;;;7.65;4.75;;;;;;;25.80;34.92;100281.66;2156360;80;20972;-79
2021/09/09 10:15:01;;;;;;;6.65;4.67;;;;;;;25.80;34.58;100276.23;2154072;80;21490;-80
2021/09/09 10:18:03;;;;;;;7.80;4.50;;;;;;;25.93;34.71;100272.23;2153672;80;21577;-77
2021/09/09 10:21:04;;;;;;;7.55;4.78;;;;;;;26.00;34.77;100274.17;2163593;81;21010;-79
2021/09/09 10:24:19;;;;;;;8.15;4.60;;;;;;;26.20;33.88;100273.98;2156295;80;21044;-78
2021/09/09 10:27:32;;;;;;;6.17;4.60;;;;;;;26.28;34.36;100271.56;2157253;80;21031;-78
2021/09/09 10:30:31;;;;;;;7.50;4.05;;;;;;;26.13;33.03;100263.37;2160706;81;20987;-79
2021/09/09 10:33:34;;;;;;;11.53;4.40;;;;;;;26.14;33.64;100255.47;2157722;81;20954;-80
2021/09/09 10:36:45;;;;;;;9.98;4.78;;;;;;;26.26;32.85;100253.87;2160051;80;20991;-80
2021/09/09 10:39:53;;;;;;;6.15;4.22;;;;;;;26.31;32.66;100252.53;2153860;81;21003;-79
2021/09/09 10:42:58;;;;;;;12.40;4.08;;;;;;;26.23;32.27;100249.78;2159014;80;21084;-77
2021/09/09 10:46:10;;;;;;;7.83;4.85;;;;;;;26.25;32.91;100244.91;2160884;80;21035;-77
2021/09/09 10:49:17;;;;;;;6.72;4.20;;;;;;;26.33;32.85;100238.95;2159676;80;21014;-79
2021/09/09 10:52:19;;;;;;;6.55;4.50;;;;;;;26.29;32.53;100241.09;2157567;80;21009;-82
2021/09/09 10:55:24;;;;;;;5.08;4.28;;;;;;;26.50;33.15;100243.34;2164752;80;21081;-81
2021/09/09 10:58:27;;;;;;;5.78;4.08;;;;;;;26.72;33.39;100241.22;2160645;80;21516;-79
2021/09/09 11:01:29;;;;;;;8.13;4.60;;;;;;;26.92;33.23;100236.84;2160516;80;21017;-81
2021/09/09 11:04:34;;;;;;;10.55;4.40;;;;;;;26.90;33.72;100231.69;2166655;80;21000;-82
2021/09/09 11:07:38;;;;;;;7.85;4.15;;;;;;;26.95;34.26;100222.72;2163498;80;21028;-79
2021/09/09 11:10:39;;;;;;;5.65;4.17;;;;;;;27.11;33.66;100216.70;2155797;80;20947;-80
2021/09/09 11:13:40;;;;;;;6.60;4.00;;;;;;;27.09;32.25;100210.18;2156988;80;21330;-82
2021/09/09 11:16:42;;;;;;;9.68;4.28;;;;;;;26.67;32.52;100214.00;2160337;80;20989;-80
2021/09/09 11:19:44;;;;;;;6.87;3.92;;;;;;;26.63;33.96;100212.08;2155235;80;20942;-81
2021/09/09 11:22:45;;;;;;;7.22;4.50;;;;;;;26.65;32.80;100202.56;2159049;80;21308;-83
2021/09/09 11:25:48;;;;;;;8.38;4.50;;;;;;;26.67;33.06;100199.58;2157505;80;21043;-82
2021/09/09 11:28:51;;;;;;;14.13;4.22;;;;;;;26.61;32.39;100196.05;2162713;80;21013;-81
2021/09/09 11:31:57;;;;;;;5.85;3.98;;;;;;;26.65;33.06;100196.31;2160068;80;21036;-80
2021/09/09 11:35:07;;;;;;;7.42;3.80;;;;;;;26.55;31.94;100203.91;2159944;80;21480;-81
2021/09/09 11:38:08;;;;;;;6.67;3.70;;;;;;;26.61;32.61;100190.59;2155204;80;21023;-80
2021/09/09 11:41:12;;;;;;;7.33;3.92;;;;;;;26.75;32.15;100186.77;2156518;80;21091;-79
2021/09/09 11:44:32;;;;;;;7.20;3.37;;;;;;;26.78;31.26;100187.61;2159121;80;21004;-78
2021/09/09 11:47:34;;;;;;;5.90;3.23;;;;;;;26.82;33.16;100185.41;2159583;81;20974;-81
2021/09/09 11:50:46;;;;;;;7.62;3.50;;;;;;;26.96;31.42;100186.23;2153078;81;21589;-81
2021/09/09 11:53:50;;;;;;;4.08;3.22;;;;;;;26.97;28.84;100189.20;2147596;81;20979;-81
2021/09/09 11:57:05;;;;;;;5.97;2.67;;;;;;;26.95;29.05;100192.22;2150225;81;20988;-81
2021/09/09 12:00:07;;;;;;;7.08;2.95;;;;;;;26.91;28.51;100187.59;2143914;81;21043;-82
2021/09/09 12:03:09;;;;;;;5.60;2.85;;;;;;;26.73;27.15;100182.97;2149893;81;21007;-82
2021/09/09 12:06:12;;;;;;;3.22;2.83;;;;;;;26.71;27.72;100166.64;2148357;81;21024;-83
2021/09/09 12:09:29;;;;;;;3.95;3.00;;;;;;;26.72;27.80;100178.63;2149373;81;21473;-82
2021/09/09 12:12:33;;;;;;;8.20;3.45;;;;;;;26.82;27.77;100161.46;2153175;81;21016;-82
2021/09/09 12:15:35;;;;;;;5.33;2.70;;;;;;;26.74;28.21;100167.45;2148300;81;21566;-82
2021/09/09 12:18:36;;;;;;;6.65;2.85;;;;;;;26.70;27.19;100163.66;2152445;81;21058;-80
2021/09/09 12:21:55;;;;;;;5.50;2.92;;;;;;;26.61;26.86;100170.19;2154716;81;21044;-81
2021/09/09 12:24:56;;;;;;;3.40;2.90;;;;;;;26.58;27.28;100177.51;2148443;81;21023;-81
2021/09/09 12:28:14;;;;;;;4.60;3.10;;;;;;;26.56;27.47;100171.55;2151121;81;21822;-81
2021/09/09 12:31:33;;;;;;;3.72;3.02;;;;;;;26.64;29.03;100168.28;2157491;81;20966;-81
2021/09/09 12:34:36;;;;;;;4.45;3.08;;;;;;;26.69;28.49;100172.34;2150756;81;21023;-80
2021/09/09 12:37:38;;;;;;;7.85;2.55;;;;;;;26.74;28.90;100158.73;2151523;81;21064;-80
2021/09/09 12:40:46;;;;;;;4.47;2.83;;;;;;;26.94;28.72;100169.34;2153415;81;20991;-80
2021/09/09 12:44:02;;;;;;;3.05;2.37;;;;;;;26.92;27.45;100157.38;2148906;81;20998;-81
2021/09/09 12:47:17;;;;;;;4.12;3.12;;;;;;;26.89;27.58;100158.45;2151155;81;21014;-80
2021/09/09 12:50:34;;;;;;;4.45;2.65;;;;;;;26.83;27.11;100153.56;2150545;81;21594;-81
2021/09/09 12:53:38;;;;;;;5.05;2.75;;;;;;;26.74;27.13;100143.77;2145285;81;21248;-81
2021/09/09 12:56:47;;;;;;;4.10;2.42;;;;;;;26.69;26.24;100136.16;2152223;81;21557;-80
2021/09/09 12:59:49;;;;;;;4.50;2.70;;;;;;;26.70;27.13;100144.61;2147907;81;21571;-80
2021/09/09 13:02:50;;;;;;;4.22;2.60;;;;;;;26.68;27.50;100136.70;2146385;81;21495;-82
2021/09/09 13:05:52;;;;;;;3.42;2.60;;;;;;;26.62;27.34;100133.72;2149650;81;20960;-80
2021/09/09 13:08:53;;;;;;;7.95;2.72;;;;;;;26.64;27.82;100135.63;2152042;81;21058;-79
2021/09/09 13:11:55;;;;;;;7.45;2.62;;;;;;;26.75;27.49;100130.97;2150159;81;20976;-81
2021/09/09 13:14:56;;;;;;;4.97;2.22;;;;;;;26.85;28.20;100129.61;2152308;81;21501;-80
2021/09/09 13:17:58;;;;;;;4.58;2.45;;;;;;;26.84;27.13;100122.55;2152295;81;20992;-81
2021/09/09 13:21:00;;;;;;;3.72;2.85;;;;;;;26.77;26.89;100124.17;2152484;81;21065;-81
2021/09/09 13:24:02;;;;;;;7.20;2.75;;;;;;;26.83;27.87;100119.02;2158766;81;21009;-80
2021/09/09 13:27:04;;;;;;;4.67;2.80;;;;;;;26.81;27.49;100120.38;2149776;81;21106;-81
2021/09/09 13:30:07;;;;;;;4.70;2.55;;;;;;;26.74;27.75;100119.28;2153257;81;21062;-82
2021/09/09 13:33:09;;;;;;;5.37;2.72;;;;;;;26.73;27.87;100117.66;2149425;81;21544;-80
2021/09/09 13:36:11;;;;;;;4.45;2.47;;;;;;;26.71;27.71;100119.83;2156108;81;21004;-80
2021/09/09 13:39:12;;;;;;;6.05;2.70;;;;;;;26.69;26.47;100112.47;2154710;81;21468;-82
2021/09/09 13:42:14;;;;;;;3.10;2.27;;;;;;;26.66;27.55;100106.22;2148922;81;21765;-81
2021/09/09 13:45:16;;;;;;;3.05;2.55;;;;;;;26.65;26.71;100104.59;2152611;80;21006;-79
2021/09/09 13:48:17;;;;;;;5.33;2.65;;;;;;;26.58;27.98;100107.61;2151462;80;21359;-80
2021/09/09 13:51:19;;;;;;;4.90;2.50;;;;;;;26.50;26.95;100099.99;2151705;80;21030;-81
2021/09/09 13:54:20;;;;;;;3.65;2.80;;;;;;;26.50;27.66;100101.87;2147668;80;21023;-80
2021/09/09 13:57:22;;;;;;;4.17;2.62;;;;;;;26.48;28.35;100104.85;2151707;80;20966;-81
2021/09/09 14:00:23;;;;;;;5.17;2.22;;;;;;;26.41;26.82;100095.33;2149954;80;21036;-82
2021/09/09 14:03:25;;;;;;;3.67;2.10;;;;;;;26.35;27.63;100101.31;2148205;80;21020;-81